Dixon, Indiana
Current Conditions -  °F | °C
As of 10:54 PM on Saturday 20 Dec 2014 (Local Time) from KFWA Reporting Station
Haze Haze  
Wind Chill: 25°   Ceiling: 6500
Heat Index: 30°   Visibility: 6mi
Dew Point: 27°   Wind: 5mph
Humidity: 88%   Direction: 220°SW
Pressure: 30.29"   Gusts: NA
Location:  40.9863°N, 84.8797°W
Report Text: KFWA 210354Z 22004KT 6SM BR SCT032 OVC065 M01/M03 A3029 RMK AO2 SLP266 T10111028
Loading
Personal Weather Stations






























Interactive Weather Map New forecast layout! Learn more

10-Day Weather Forecast

Advertisements
Track Severe Weather on mobile